sensor_id;sensor_type;location;lat;lon;timestamp;pressure;altitude;pressure_sealevel;temperature;humidity
43741;BME280;29352;48.708;9.290;2023-01-29T00:01:52;98906.56;;;-7.92;82.89
43741;BME280;29352;48.708;9.290;2023-01-29T00:04:18;98906.22;;;-8.03;82.99
43741;BME280;29352;48.708;9.290;2023-01-29T00:06:43;98910.69;;;-7.88;82.54
43741;BME280;29352;48.708;9.290;2023-01-29T00:09:10;98907.16;;;-8.04;82.18
43741;BME280;29352;48.708;9.290;2023-01-29T00:11:37;98913.84;;;-8.00;82.43
43741;BME280;29352;48.708;9.290;2023-01-29T00:14:02;98905.25;;;-7.83;81.95
43741;BME280;29352;48.708;9.290;2023-01-29T00:16:28;98900.75;;;-7.97;81.15
43741;BME280;29352;48.708;9.290;2023-01-29T00:18:53;98906.56;;;-8.10;81.76
43741;BME280;29352;48.708;9.290;2023-01-29T00:21:20;98903.09;;;-8.10;81.65
43741;BME280;29352;48.708;9.290;2023-01-29T00:23:47;98911.75;;;-7.92;81.83
43741;BME280;29352;48.708;9.290;2023-01-29T00:26:13;98912.66;;;-7.93;81.66
43741;BME280;29352;48.708;9.290;2023-01-29T00:28:40;98915.88;;;-7.88;81.09
43741;BME280;29352;48.708;9.290;2023-01-29T00:31:08;98905.50;;;-7.71;80.48
43741;BME280;29352;48.708;9.290;2023-01-29T00:33:34;98906.63;;;-7.94;80.66
43741;BME280;29352;48.708;9.290;2023-01-29T00:36:04;98903.97;;;-8.10;80.54
43741;BME280;29352;48.708;9.290;2023-01-29T00:38:32;98903.66;;;-7.69;79.91
43741;BME280;29352;48.708;9.290;2023-01-29T00:41:05;98904.28;;;-7.98;80.07
43741;BME280;29352;48.708;9.290;2023-01-29T00:43:54;98906.72;;;-7.60;79.20
43741;BME280;29352;48.708;9.290;2023-01-29T00:46:38;98898.56;;;-7.70;78.95
43741;BME280;29352;48.708;9.290;2023-01-29T00:49:05;98904.34;;;-7.82;79.35
43741;BME280;29352;48.708;9.290;2023-01-29T00:51:31;98900.31;;;-7.88;79.22
43741;BME280;29352;48.708;9.290;2023-01-29T00:53:57;98899.09;;;-7.46;78.54
43741;BME280;29352;48.708;9.290;2023-01-29T00:56:28;98900.06;;;-7.31;78.24
43741;BME280;29352;48.708;9.290;2023-01-29T00:58:54;98903.94;;;-7.23;76.97
43741;BME280;29352;48.708;9.290;2023-01-29T01:01:22;98914.72;;;-7.48;78.08
43741;BME280;29352;48.708;9.290;2023-01-29T01:04:09;98902.91;;;-7.71;78.33
43741;BME280;29352;48.708;9.290;2023-01-29T01:06:40;98896.66;;;-7.49;79.05
43741;BME280;29352;48.708;9.290;2023-01-29T01:09:08;98894.13;;;-7.51;78.69
43741;BME280;29352;48.708;9.290;2023-01-29T01:11:53;98901.59;;;-7.45;77.60
43741;BME280;29352;48.708;9.290;2023-01-29T01:14:19;98902.44;;;-7.44;77.47
43741;BME280;29352;48.708;9.290;2023-01-29T01:16:46;98901.03;;;-7.34;77.12
43741;BME280;29352;48.708;9.290;2023-01-29T01:19:14;98896.69;;;-7.33;77.75
43741;BME280;29352;48.708;9.290;2023-01-29T01:21:40;98899.19;;;-7.15;76.96
43741;BME280;29352;48.708;9.290;2023-01-29T01:24:10;98902.22;;;-7.40;77.21
43741;BME280;29352;48.708;9.290;2023-01-29T01:26:36;98893.88;;;-7.29;76.65
43741;BME280;29352;48.708;9.290;2023-01-29T01:29:01;98892.97;;;-7.45;77.21
43741;BME280;29352;48.708;9.290;2023-01-29T01:31:27;98895.59;;;-7.63;77.61
43741;BME280;29352;48.708;9.290;2023-01-29T01:33:53;98895.81;;;-7.50;76.95
43741;BME280;29352;48.708;9.290;2023-01-29T01:36:19;98889.78;;;-7.50;77.53
43741;BME280;29352;48.708;9.290;2023-01-29T01:38:45;98890.84;;;-7.54;78.51
43741;BME280;29352;48.708;9.290;2023-01-29T01:41:15;98889.56;;;-7.46;78.03
43741;BME280;29352;48.708;9.290;2023-01-29T01:43:57;98894.16;;;-7.18;77.08
43741;BME280;29352;48.708;9.290;2023-01-29T01:46:34;98887.94;;;-7.48;78.06
43741;BME280;29352;48.708;9.290;2023-01-29T01:49:13;98895.28;;;-7.39;78.17
43741;BME280;29352;48.708;9.290;2023-01-29T01:51:47;98892.69;;;-7.39;77.94
43741;BME280;29352;48.708;9.290;2023-01-29T01:54:26;98888.63;;;-7.45;77.77
43741;BME280;29352;48.708;9.290;2023-01-29T01:57:03;98880.25;;;-7.17;76.14
43741;BME280;29352;48.708;9.290;2023-01-29T01:59:39;98882.44;;;-7.42;77.37
43741;BME280;29352;48.708;9.290;2023-01-29T02:02:06;98880.09;;;-7.47;78.40
43741;BME280;29352;48.708;9.290;2023-01-29T02:04:52;98881.25;;;-7.52;76.46
43741;BME280;29352;48.708;9.290;2023-01-29T02:07:41;98888.34;;;-7.56;77.25
43741;BME280;29352;48.708;9.290;2023-01-29T02:10:44;98877.25;;;-7.42;76.37
43741;BME280;29352;48.708;9.290;2023-01-29T02:13:13;98883.97;;;-7.38;76.66
43741;BME280;29352;48.708;9.290;2023-01-29T02:15:42;98885.84;;;-7.57;77.25
43741;BME280;29352;48.708;9.290;2023-01-29T02:18:11;98895.56;;;-7.45;76.36
43741;BME280;29352;48.708;9.290;2023-01-29T02:20:52;98898.47;;;-7.51;76.34
43741;BME280;29352;48.708;9.290;2023-01-29T02:30:02;98898.56;;;-7.88;78.81
43741;BME280;29352;48.708;9.290;2023-01-29T02:32:50;98894.59;;;-7.60;78.43
43741;BME280;29352;48.708;9.290;2023-01-29T02:35:52;98903.88;;;-8.08;79.33
43741;BME280;29352;48.708;9.290;2023-01-29T02:47:15;98906.72;;;-7.78;78.96
43741;BME280;29352;48.708;9.290;2023-01-29T02:50:05;98905.09;;;-7.98;79.23
43741;BME280;29352;48.708;9.290;2023-01-29T02:53:07;98899.69;;;-7.93;78.93
43741;BME280;29352;48.708;9.290;2023-01-29T02:56:05;98900.53;;;-7.93;79.07
43741;BME280;29352;48.708;9.290;2023-01-29T02:58:47;98902.28;;;-7.93;78.63
43741;BME280;29352;48.708;9.290;2023-01-29T03:01:27;98903.66;;;-7.86;78.18
43741;BME280;29352;48.708;9.290;2023-01-29T03:04:11;98900.47;;;-7.91;78.25
43741;BME280;29352;48.708;9.290;2023-01-29T03:06:50;98896.88;;;-8.06;78.86
43741;BME280;29352;48.708;9.290;2023-01-29T03:09:32;98893.97;;;-8.00;78.72
43741;BME280;29352;48.708;9.290;2023-01-29T03:12:19;98888.72;;;-7.81;78.43
43741;BME280;29352;48.708;9.290;2023-01-29T03:15:05;98897.56;;;-8.02;78.50
43741;BME280;29352;48.708;9.290;2023-01-29T03:18:41;98891.06;;;-7.94;77.98
43741;BME280;29352;48.708;9.290;2023-01-29T03:21:02;98891.06;;;-7.94;78.60
43741;BME280;29352;48.708;9.290;2023-01-29T03:23:54;98889.56;;;-7.63;77.54
43741;BME280;29352;48.708;9.290;2023-01-29T03:26:42;98891.78;;;-7.90;77.69
43741;BME280;29352;48.708;9.290;2023-01-29T03:29:35;98895.03;;;-8.04;78.19
43741;BME280;29352;48.708;9.290;2023-01-29T03:32:26;98897.09;;;-7.93;77.85
43741;BME280;29352;48.708;9.290;2023-01-29T03:34:57;98896.66;;;-7.84;78.03
43741;BME280;29352;48.708;9.290;2023-01-29T03:40:02;98907.94;;;-8.02;78.38
43741;BME280;29352;48.708;9.290;2023-01-29T03:45:54;98890.69;;;-7.69;76.15
43741;BME280;29352;48.708;9.290;2023-01-29T03:48:52;98894.38;;;-7.73;76.70
43741;BME280;29352;48.708;9.290;2023-01-29T03:51:40;98887.97;;;-7.66;76.82
43741;BME280;29352;48.708;9.290;2023-01-29T03:54:22;98888.31;;;-7.39;74.73
43741;BME280;29352;48.708;9.290;2023-01-29T03:57:09;98893.13;;;-7.48;74.69
43741;BME280;29352;48.708;9.290;2023-01-29T04:00:02;98899.41;;;-7.70;75.15
43741;BME280;29352;48.708;9.290;2023-01-29T04:02:45;98905.91;;;-7.61;76.26
43741;BME280;29352;48.708;9.290;2023-01-29T04:05:21;98903.06;;;-7.39;75.77
43741;BME280;29352;48.708;9.290;2023-01-29T04:08:00;98899.50;;;-7.71;77.35
43741;BME280;29352;48.708;9.290;2023-01-29T04:10:34;98897.88;;;-7.56;75.75
43741;BME280;29352;48.708;9.290;2023-01-29T04:13:05;98904.44;;;-7.49;75.86
43741;BME280;29352;48.708;9.290;2023-01-29T04:15:45;98905.50;;;-7.53;75.96
43741;BME280;29352;48.708;9.290;2023-01-29T04:18:16;98905.19;;;-7.65;78.10
43741;BME280;29352;48.708;9.290;2023-01-29T04:20:42;98904.69;;;-7.71;77.46
43741;BME280;29352;48.708;9.290;2023-01-29T04:23:23;98908.31;;;-7.75;77.86
43741;BME280;29352;48.708;9.290;2023-01-29T04:31:46;98907.94;;;-7.85;79.15
43741;BME280;29352;48.708;9.290;2023-01-29T04:34:28;98913.88;;;-7.83;78.68
43741;BME280;29352;48.708;9.290;2023-01-29T04:42:47;98899.66;;;-8.11;78.83
43741;BME280;29352;48.708;9.290;2023-01-29T04:45:34;98902.44;;;-7.96;79.18
43741;BME280;29352;48.708;9.290;2023-01-29T04:48:23;98908.84;;;-7.86;78.19
43741;BME280;29352;48.708;9.290;2023-01-29T04:54:07;98900.34;;;-8.07;78.50
43741;BME280;29352;48.708;9.290;2023-01-29T04:59:44;98887.50;;;-7.74;77.00
43741;BME280;29352;48.708;9.290;2023-01-29T05:02:13;98895.28;;;-7.91;77.28
43741;BME280;29352;48.708;9.290;2023-01-29T05:04:40;98903.44;;;-7.99;77.46
43741;BME280;29352;48.708;9.290;2023-01-29T05:07:12;98911.66;;;-7.91;77.30
43741;BME280;29352;48.708;9.290;2023-01-29T05:09:43;98903.06;;;-7.91;77.79
43741;BME280;29352;48.708;9.290;2023-01-29T05:12:13;98909.16;;;-7.92;78.25
43741;BME280;29352;48.708;9.290;2023-01-29T05:14:44;98901.78;;;-8.19;79.14
43741;BME280;29352;48.708;9.290;2023-01-29T05:17:17;98905.63;;;-8.08;79.23
43741;BME280;29352;48.708;9.290;2023-01-29T05:19:45;98898.47;;;-8.03;78.53
43741;BME280;29352;48.708;9.290;2023-01-29T05:22:15;98905.34;;;-7.85;78.21
43741;BME280;29352;48.708;9.290;2023-01-29T05:24:42;98905.00;;;-7.96;78.09
43741;BME280;29352;48.708;9.290;2023-01-29T05:27:18;98898.91;;;-8.13;79.38
43741;BME280;29352;48.708;9.290;2023-01-29T05:30:05;98901.19;;;-8.06;78.54
43741;BME280;29352;48.708;9.290;2023-01-29T05:32:32;98897.16;;;-8.12;79.03
43741;BME280;29352;48.708;9.290;2023-01-29T05:34:57;98901.72;;;-8.00;78.46
43741;BME280;29352;48.708;9.290;2023-01-29T05:37:22;98906.22;;;-8.03;78.50
43741;BME280;29352;48.708;9.290;2023-01-29T05:39:48;98903.75;;;-7.88;78.00
43741;BME280;29352;48.708;9.290;2023-01-29T05:42:13;98902.53;;;-8.17;78.45
43741;BME280;29352;48.708;9.290;2023-01-29T05:44:39;98908.13;;;-8.43;79.18
43741;BME280;29352;48.708;9.290;2023-01-29T05:47:04;98905.00;;;-8.14;78.48
43741;BME280;29352;48.708;9.290;2023-01-29T05:49:30;98902.28;;;-7.93;77.58
43741;BME280;29352;48.708;9.290;2023-01-29T05:51:55;98902.44;;;-7.96;77.93
43741;BME280;29352;48.708;9.290;2023-01-29T05:54:21;98904.97;;;-7.95;77.39
43741;BME280;29352;48.708;9.290;2023-01-29T05:56:46;98896.88;;;-8.06;77.39
43741;BME280;29352;48.708;9.290;2023-01-29T05:59:12;98879.63;;;-8.07;77.56
43741;BME280;29352;48.708;9.290;2023-01-29T06:01:38;98870.88;;;-8.04;77.57
43741;BME280;29352;48.708;9.290;2023-01-29T06:04:04;98860.50;;;-8.22;77.54
43741;BME280;29352;48.708;9.290;2023-01-29T06:06:29;98860.25;;;-8.17;77.17
43741;BME280;29352;48.708;9.290;2023-01-29T06:08:55;98854.75;;;-7.75;76.35
43741;BME280;29352;48.708;9.290;2023-01-29T06:11:21;98862.88;;;-7.82;76.71
43741;BME280;29352;48.708;9.290;2023-01-29T06:13:46;98858.13;;;-8.26;78.39
43741;BME280;29352;48.708;9.290;2023-01-29T06:16:12;98862.66;;;-7.95;77.36
43741;BME280;29352;48.708;9.290;2023-01-29T06:18:40;98866.75;;;-7.56;76.20
43741;BME280;29352;48.708;9.290;2023-01-29T06:21:08;98869.56;;;-7.78;76.26
43741;BME280;29352;48.708;9.290;2023-01-29T06:23:36;98862.03;;;-7.83;76.90
43741;BME280;29352;48.708;9.290;2023-01-29T06:26:04;98880.84;;;-8.14;79.13
43741;BME280;29352;48.708;9.290;2023-01-29T06:28:31;98883.66;;;-8.19;79.15
43741;BME280;29352;48.708;9.290;2023-01-29T06:30:58;98880.31;;;-8.03;80.01
43741;BME280;29352;48.708;9.290;2023-01-29T06:33:25;98882.44;;;-8.12;79.63
43741;BME280;29352;48.708;9.290;2023-01-29T06:36:02;98886.56;;;-8.07;79.20
43741;BME280;29352;48.708;9.290;2023-01-29T06:38:29;98893.50;;;-8.44;79.94
43741;BME280;29352;48.708;9.290;2023-01-29T06:40:56;98891.00;;;-8.10;79.22
43741;BME280;29352;48.708;9.290;2023-01-29T06:43:22;98887.50;;;-8.08;78.89
43741;BME280;29352;48.708;9.290;2023-01-29T06:45:53;98883.66;;;-8.19;80.16
43741;BME280;29352;48.708;9.290;2023-01-29T06:48:20;98894.44;;;-8.28;79.37
43741;BME280;29352;48.708;9.290;2023-01-29T06:50:47;98905.44;;;-8.23;80.02
43741;BME280;29352;48.708;9.290;2023-01-29T06:53:14;98904.75;;;-8.26;80.34
43741;BME280;29352;48.708;9.290;2023-01-29T06:55:40;98897.44;;;-8.18;78.74
43741;BME280;29352;48.708;9.290;2023-01-29T06:58:07;98888.53;;;-8.30;78.69
43741;BME280;29352;48.708;9.290;2023-01-29T07:00:34;98890.59;;;-8.19;78.39
43741;BME280;29352;48.708;9.290;2023-01-29T07:03:00;98900.97;;;-8.38;78.63
43741;BME280;29352;48.708;9.290;2023-01-29T07:05:26;98906.78;;;-8.33;78.22
43741;BME280;29352;48.708;9.290;2023-01-29T07:07:52;98908.78;;;-8.21;78.56
43741;BME280;29352;48.708;9.290;2023-01-29T07:10:17;98912.47;;;-8.07;78.88
43741;BME280;29352;48.708;9.290;2023-01-29T07:12:42;98919.75;;;-8.33;77.85
43741;BME280;29352;48.708;9.290;2023-01-29T07:15:08;98911.88;;;-8.13;78.43
43741;BME280;29352;48.708;9.290;2023-01-29T07:17:34;98910.75;;;-7.90;77.40
43741;BME280;29352;48.708;9.290;2023-01-29T07:19:59;98909.47;;;-8.17;77.35
43741;BME280;29352;48.708;9.290;2023-01-29T07:22:24;98906.09;;;-8.00;76.82
43741;BME280;29352;48.708;9.290;2023-01-29T07:24:50;98910.53;;;-8.02;76.59
43741;BME280;29352;48.708;9.290;2023-01-29T07:27:15;98915.91;;;-8.07;77.19
43741;BME280;29352;48.708;9.290;2023-01-29T07:29:41;98919.59;;;-7.76;76.43
43741;BME280;29352;48.708;9.290;2023-01-29T07:32:06;98921.06;;;-7.88;76.82
43741;BME280;29352;48.708;9.290;2023-01-29T07:34:32;98918.13;;;-7.82;76.30
43741;BME280;29352;48.708;9.290;2023-01-29T07:36:57;98917.78;;;-7.92;77.69
43741;BME280;29352;48.708;9.290;2023-01-29T07:39:23;98928.47;;;-7.99;77.66
43741;BME280;29352;48.708;9.290;2023-01-29T07:41:48;98922.13;;;-7.75;77.44
43741;BME280;29352;48.708;9.290;2023-01-29T07:44:14;98932.78;;;-7.81;77.55
43741;BME280;29352;48.708;9.290;2023-01-29T07:46:39;98927.13;;;-7.89;77.86
43741;BME280;29352;48.708;9.290;2023-01-29T07:49:05;98931.34;;;-7.87;77.66
43741;BME280;29352;48.708;9.290;2023-01-29T07:51:30;98929.91;;;-7.75;77.23
43741;BME280;29352;48.708;9.290;2023-01-29T07:53:56;98930.91;;;-7.60;76.91
43741;BME280;29352;48.708;9.290;2023-01-29T07:56:21;98933.94;;;-7.69;76.98
43741;BME280;29352;48.708;9.290;2023-01-29T07:58:46;98942.03;;;-7.58;76.46
43741;BME280;29352;48.708;9.290;2023-01-29T08:01:12;98937.75;;;-7.42;75.46
43741;BME280;29352;48.708;9.290;2023-01-29T08:03:37;98939.28;;;-7.38;75.66
43741;BME280;29352;48.708;9.290;2023-01-29T08:06:03;98939.66;;;-7.45;75.66
43741;BME280;29352;48.708;9.290;2023-01-29T08:08:29;98943.03;;;-7.43;75.04
43741;BME280;29352;48.708;9.290;2023-01-29T08:10:55;98945.78;;;-7.46;75.24
43741;BME280;29352;48.708;9.290;2023-01-29T08:13:20;98950.97;;;-7.46;75.35
43741;BME280;29352;48.708;9.290;2023-01-29T08:15:46;98942.09;;;-7.42;75.88
43741;BME280;29352;48.708;9.290;2023-01-29T08:18:12;98932.03;;;-7.48;75.98
43741;BME280;29352;48.708;9.290;2023-01-29T08:20:38;98936.16;;;-7.44;76.24
43741;BME280;29352;48.708;9.290;2023-01-29T08:23:07;98935.69;;;-7.35;75.13
43741;BME280;29352;48.708;9.290;2023-01-29T08:25:37;98934.19;;;-7.39;74.76
43741;BME280;29352;48.708;9.290;2023-01-29T08:28:03;98932.91;;;-7.15;74.01
43741;BME280;29352;48.708;9.290;2023-01-29T08:30:31;98941.72;;;-7.34;75.57
43741;BME280;29352;48.708;9.290;2023-01-29T08:32:58;98944.16;;;-7.31;76.49
43741;BME280;29352;48.708;9.290;2023-01-29T08:35:24;98954.00;;;-7.21;75.70
43741;BME280;29352;48.708;9.290;2023-01-29T08:37:58;98960.72;;;-7.51;76.22
43741;BME280;29352;48.708;9.290;2023-01-29T08:40:27;98954.16;;;-7.41;75.48
43741;BME280;29352;48.708;9.290;2023-01-29T08:42:59;98957.13;;;-7.31;75.86
43741;BME280;29352;48.708;9.290;2023-01-29T08:45:26;98964.44;;;-7.05;74.30
43741;BME280;29352;48.708;9.290;2023-01-29T08:47:51;98961.09;;;-7.24;74.09
43741;BME280;29352;48.708;9.290;2023-01-29T08:50:17;98951.75;;;-6.94;73.26
43741;BME280;29352;48.708;9.290;2023-01-29T08:52:43;98957.44;;;-7.38;75.33
43741;BME280;29352;48.708;9.290;2023-01-29T08:55:10;98962.59;;;-7.03;74.43
43741;BME280;29352;48.708;9.290;2023-01-29T08:57:37;98974.59;;;-7.52;75.44
43741;BME280;29352;48.708;9.290;2023-01-29T09:00:04;98976.41;;;-7.37;75.33
43741;BME280;29352;48.708;9.290;2023-01-29T09:02:31;98973.63;;;-7.32;75.20
43741;BME280;29352;48.708;9.290;2023-01-29T09:04:56;98972.31;;;-7.24;75.54
43741;BME280;29352;48.708;9.290;2023-01-29T09:07:22;98972.84;;;-7.52;75.28
43741;BME280;29352;48.708;9.290;2023-01-29T09:09:47;98975.81;;;-7.42;75.13
43741;BME280;29352;48.708;9.290;2023-01-29T09:12:13;98975.53;;;-7.36;75.48
43741;BME280;29352;48.708;9.290;2023-01-29T09:14:38;98977.88;;;-7.31;74.78
43741;BME280;29352;48.708;9.290;2023-01-29T09:17:04;98981.59;;;-7.37;74.30
43741;BME280;29352;48.708;9.290;2023-01-29T09:19:29;98981.97;;;-7.10;73.36
43741;BME280;29352;48.708;9.290;2023-01-29T09:21:55;98977.59;;;-6.92;73.54
43741;BME280;29352;48.708;9.290;2023-01-29T09:24:20;98981.44;;;-7.17;73.98
43741;BME280;29352;48.708;9.290;2023-01-29T09:26:45;98978.66;;;-7.12;74.06
43741;BME280;29352;48.708;9.290;2023-01-29T09:29:11;98977.97;;;-7.16;73.64
43741;BME280;29352;48.708;9.290;2023-01-29T09:31:37;98973.50;;;-6.96;73.19
43741;BME280;29352;48.708;9.290;2023-01-29T09:34:02;98971.94;;;-6.83;72.54
43741;BME280;29352;48.708;9.290;2023-01-29T09:36:27;98973.81;;;-6.69;72.91
43741;BME280;29352;48.708;9.290;2023-01-29T09:38:53;98971.34;;;-6.39;71.39
43741;BME280;29352;48.708;9.290;2023-01-29T09:41:45;98973.09;;;-6.55;71.44
43741;BME280;29352;48.708;9.290;2023-01-29T09:45:00;98984.38;;;-6.72;72.17
43741;BME280;29352;48.708;9.290;2023-01-29T09:47:36;98985.34;;;-6.42;72.16
43741;BME280;29352;48.708;9.290;2023-01-29T09:56:01;98974.84;;;-6.40;70.28
43741;BME280;29352;48.708;9.290;2023-01-29T09:58:39;98961.25;;;-6.61;70.86
43741;BME280;29352;48.708;9.290;2023-01-29T10:01:28;98960.34;;;-6.44;69.67
43741;BME280;29352;48.708;9.290;2023-01-29T10:13:18;98929.88;;;-6.56;68.71
43741;BME280;29352;48.708;9.290;2023-01-29T10:24:10;98903.50;;;-5.87;68.38
43741;BME280;29352;48.708;9.290;2023-01-29T10:26:40;98899.28;;;-5.89;67.01
43741;BME280;29352;48.708;9.290;2023-01-29T10:29:06;98896.38;;;-5.69;65.07
43741;BME280;29352;48.708;9.290;2023-01-29T10:31:38;98903.38;;;-5.55;65.85
43741;BME280;29352;48.708;9.290;2023-01-29T10:34:15;98900.66;;;-5.68;66.32
43741;BME280;29352;48.708;9.290;2023-01-29T10:36:54;98898.75;;;-5.50;65.19
43741;BME280;29352;48.708;9.290;2023-01-29T10:39:23;98901.81;;;-5.88;66.33
43741;BME280;29352;48.708;9.290;2023-01-29T10:56:23;98906.34;;;-5.91;66.23
43741;BME280;29352;48.708;9.290;2023-01-29T11:02:18;98899.91;;;-6.00;67.32
43741;BME280;29352;48.708;9.290;2023-01-29T11:04:46;98900.94;;;-5.73;66.90
43741;BME280;29352;48.708;9.290;2023-01-29T11:07:15;98903.75;;;-5.61;66.74
43741;BME280;29352;48.708;9.290;2023-01-29T11:10:06;98901.22;;;-5.18;64.89
43741;BME280;29352;48.708;9.290;2023-01-29T11:12:40;98900.81;;;-5.27;65.98
43741;BME280;29352;48.708;9.290;2023-01-29T11:18:09;98907.34;;;-5.05;64.72
43741;BME280;29352;48.708;9.290;2023-01-29T11:20:39;98901.31;;;-4.91;64.03
43741;BME280;29352;48.708;9.290;2023-01-29T11:23:29;98896.75;;;-5.31;62.81
43741;BME280;29352;48.708;9.290;2023-01-29T11:25:58;98889.50;;;-4.97;62.74
43741;BME280;29352;48.708;9.290;2023-01-29T11:28:36;98896.38;;;-4.96;63.14
43741;BME280;29352;48.708;9.290;2023-01-29T11:31:02;98898.97;;;-4.82;64.15
43741;BME280;29352;48.708;9.290;2023-01-29T11:33:29;98886.75;;;-4.67;62.02
43741;BME280;29352;48.708;9.290;2023-01-29T11:35:54;98887.53;;;-4.79;63.71
43741;BME280;29352;48.708;9.290;2023-01-29T11:38:24;98892.41;;;-4.46;63.85
43741;BME280;29352;48.708;9.290;2023-01-29T11:40:52;98884.38;;;-4.29;62.74
43741;BME280;29352;48.708;9.290;2023-01-29T11:43:32;98877.22;;;-4.95;62.60
43741;BME280;29352;48.708;9.290;2023-01-29T11:46:12;98876.66;;;-4.86;64.05
43741;BME280;29352;48.708;9.290;2023-01-29T11:48:43;98861.13;;;-4.46;63.58
43741;BME280;29352;48.708;9.290;2023-01-29T11:51:26;98857.75;;;-4.34;62.76
43741;BME280;29352;48.708;9.290;2023-01-29T11:54:01;98863.50;;;-4.56;62.55
43741;BME280;29352;48.708;9.290;2023-01-29T11:56:39;98863.09;;;-4.77;62.57
43741;BME280;29352;48.708;9.290;2023-01-29T12:01:53;98853.72;;;-4.93;64.10
43741;BME280;29352;48.708;9.290;2023-01-29T12:04:23;98856.81;;;-4.33;61.79
43741;BME280;29352;48.708;9.290;2023-01-29T12:06:52;98855.88;;;-4.59;63.62
43741;BME280;29352;48.708;9.290;2023-01-29T12:09:22;98849.91;;;-4.61;62.52
43741;BME280;29352;48.708;9.290;2023-01-29T12:11:52;98845.94;;;-4.39;62.27
43741;BME280;29352;48.708;9.290;2023-01-29T12:17:06;98838.44;;;-4.44;63.30
43741;BME280;29352;48.708;9.290;2023-01-29T12:19:46;98831.44;;;-4.85;63.20
43741;BME280;29352;48.708;9.290;2023-01-29T12:22:22;98826.63;;;-4.77;63.62
43741;BME280;29352;48.708;9.290;2023-01-29T12:25:08;98810.84;;;-5.16;63.07
43741;BME280;29352;48.708;9.290;2023-01-29T12:28:05;98804.91;;;-5.18;64.54
43741;BME280;29352;48.708;9.290;2023-01-29T12:34:12;98773.66;;;-4.50;62.92
43741;BME280;29352;48.708;9.290;2023-01-29T12:36:54;98768.28;;;-4.07;61.87
43741;BME280;29352;48.708;9.290;2023-01-29T12:39:28;98753.75;;;-4.11;61.91
43741;BME280;29352;48.708;9.290;2023-01-29T12:47:36;98729.75;;;-3.27;60.24
43741;BME280;29352;48.708;9.290;2023-01-29T12:50:20;98727.56;;;-3.46;61.13
43741;BME280;29352;48.708;9.290;2023-01-29T12:52:55;98722.47;;;-3.60;61.04
43741;BME280;29352;48.708;9.290;2023-01-29T12:55:41;98723.94;;;-3.94;61.79
43741;BME280;29352;48.708;9.290;2023-01-29T12:58:31;98727.94;;;-3.89;60.43
43741;BME280;29352;48.708;9.290;2023-01-29T13:01:26;98719.38;;;-3.78;60.78
43741;BME280;29352;48.708;9.290;2023-01-29T13:04:28;98715.41;;;-3.58;60.85
43741;BME280;29352;48.708;9.290;2023-01-29T13:07:23;98710.44;;;-3.24;59.62
43741;BME280;29352;48.708;9.290;2023-01-29T13:10:02;98716.72;;;-3.03;59.81
43741;BME280;29352;48.708;9.290;2023-01-29T13:12:35;98716.22;;;-3.45;60.08
43741;BME280;29352;48.708;9.290;2023-01-29T13:18:00;98704.28;;;-2.99;59.97
43741;BME280;29352;48.708;9.290;2023-01-29T13:20:42;98708.19;;;-3.67;60.89
43741;BME280;29352;48.708;9.290;2023-01-29T13:23:21;98707.56;;;-3.45;60.42
43741;BME280;29352;48.708;9.290;2023-01-29T13:25:53;98689.50;;;-3.74;61.01
43741;BME280;29352;48.708;9.290;2023-01-29T13:28:23;98695.44;;;-3.46;59.74
43741;BME280;29352;48.708;9.290;2023-01-29T13:36:43;98697.03;;;-3.95;60.73
43741;BME280;29352;48.708;9.290;2023-01-29T13:39:36;98690.78;;;-3.92;60.96
43741;BME280;29352;48.708;9.290;2023-01-29T13:42:41;98699.31;;;-3.65;61.09
43741;BME280;29352;48.708;9.290;2023-01-29T13:47:47;98701.13;;;-3.28;60.09
43741;BME280;29352;48.708;9.290;2023-01-29T13:53:00;98693.28;;;-3.28;60.74
43741;BME280;29352;48.708;9.290;2023-01-29T13:55:31;98691.56;;;-3.41;60.89
43741;BME280;29352;48.708;9.290;2023-01-29T13:58:04;98700.28;;;-3.29;61.25
43741;BME280;29352;48.708;9.290;2023-01-29T14:10:36;98707.03;;;-3.63;61.38
43741;BME280;29352;48.708;9.290;2023-01-29T14:15:44;98706.19;;;-3.38;62.00
43741;BME280;29352;48.708;9.290;2023-01-29T14:18:33;98714.19;;;-4.31;62.71
43741;BME280;29352;48.708;9.290;2023-01-29T14:21:23;98713.66;;;-3.83;62.40
43741;BME280;29352;48.708;9.290;2023-01-29T14:23:57;98715.59;;;-3.74;63.11
43741;BME280;29352;48.708;9.290;2023-01-29T14:26:41;98707.97;;;-3.64;63.43
43741;BME280;29352;48.708;9.290;2023-01-29T14:31:49;98705.13;;;-4.38;62.56
43741;BME280;29352;48.708;9.290;2023-01-29T14:34:44;98707.81;;;-4.39;63.31
43741;BME280;29352;48.708;9.290;2023-01-29T14:39:47;98701.31;;;-4.07;62.40
43741;BME280;29352;48.708;9.290;2023-01-29T14:45:34;98698.94;;;-3.97;61.61
43741;BME280;29352;48.708;9.290;2023-01-29T14:56:40;98701.78;;;-4.40;62.92
43741;BME280;29352;48.708;9.290;2023-01-29T15:05:17;98685.59;;;-4.97;65.34
43741;BME280;29352;48.708;9.290;2023-01-29T15:07:59;98688.00;;;-4.55;65.04
43741;BME280;29352;48.708;9.290;2023-01-29T15:13:23;98696.03;;;-4.32;63.85
43741;BME280;29352;48.708;9.290;2023-01-29T15:16:23;98690.13;;;-4.34;65.28
43741;BME280;29352;48.708;9.290;2023-01-29T15:19:07;98687.50;;;-4.09;63.68
43741;BME280;29352;48.708;9.290;2023-01-29T15:22:00;98687.50;;;-4.09;62.36
43741;BME280;29352;48.708;9.290;2023-01-29T15:24:31;98688.13;;;-4.31;62.88
43741;BME280;29352;48.708;9.290;2023-01-29T15:26:57;98682.81;;;-4.29;63.19
43741;BME280;29352;48.708;9.290;2023-01-29T15:29:26;98688.75;;;-4.40;63.18
43741;BME280;29352;48.708;9.290;2023-01-29T15:31:54;98691.31;;;-4.65;63.98
43741;BME280;29352;48.708;9.290;2023-01-29T15:34:21;98693.03;;;-4.79;64.00
43741;BME280;29352;48.708;9.290;2023-01-29T15:36:48;98684.13;;;-4.89;64.45
43741;BME280;29352;48.708;9.290;2023-01-29T15:39:20;98687.69;;;-4.90;64.40
43741;BME280;29352;48.708;9.290;2023-01-29T15:41:48;98687.78;;;-4.91;64.82
43741;BME280;29352;48.708;9.290;2023-01-29T15:44:20;98691.63;;;-4.97;64.72
43741;BME280;29352;48.708;9.290;2023-01-29T15:46:51;98696.50;;;-5.19;65.65
43741;BME280;29352;48.708;9.290;2023-01-29T15:49:34;98695.59;;;-5.18;65.19
43741;BME280;29352;48.708;9.290;2023-01-29T15:52:07;98697.56;;;-5.22;64.94
43741;BME280;29352;48.708;9.290;2023-01-29T15:54:42;98702.31;;;-5.43;65.68
43741;BME280;29352;48.708;9.290;2023-01-29T15:57:19;98711.53;;;-5.52;65.97
43741;BME280;29352;48.708;9.290;2023-01-29T15:59:49;98710.06;;;-5.56;67.12
43741;BME280;29352;48.708;9.290;2023-01-29T16:02:31;98705.13;;;-5.75;66.34